sensor_id;sensor_type;location;lat;lon;timestamp;P1;durP1;ratioP1;P2;durP2;ratioP2
39356;SDS011;25077;50.302;18.996;2022-09-16T00:02:18;11.90;;;7.27;;
39356;SDS011;25077;50.302;18.996;2022-09-16T00:05:20;10.83;;;6.43;;
39356;SDS011;25077;50.302;18.996;2022-09-16T00:08:23;14.07;;;5.90;;
39356;SDS011;25077;50.302;18.996;2022-09-16T00:11:26;11.07;;;5.90;;
39356;SDS011;25077;50.302;18.996;2022-09-16T00:14:28;10.30;;;6.57;;
39356;SDS011;25077;50.302;18.996;2022-09-16T00:17:30;13.57;;;6.67;;
39356;SDS011;25077;50.302;18.996;2022-09-16T00:20:34;12.30;;;6.43;;
39356;SDS011;25077;50.302;18.996;2022-09-16T00:23:36;8.27;;;5.20;;
39356;SDS011;25077;50.302;18.996;2022-09-16T00:26:40;9.80;;;5.50;;
39356;SDS011;25077;50.302;18.996;2022-09-16T00:29:42;7.63;;;4.97;;
39356;SDS011;25077;50.302;18.996;2022-09-16T00:32:44;13.73;;;5.27;;
39356;SDS011;25077;50.302;18.996;2022-09-16T00:35:47;23.23;;;7.90;;
39356;SDS011;25077;50.302;18.996;2022-09-16T00:38:49;10.10;;;6.50;;
39356;SDS011;25077;50.302;18.996;2022-09-16T00:41:53;10.70;;;5.10;;
39356;SDS011;25077;50.302;18.996;2022-09-16T00:44:57;9.13;;;4.10;;
39356;SDS011;25077;50.302;18.996;2022-09-16T00:48:02;8.47;;;4.10;;
39356;SDS011;25077;50.302;18.996;2022-09-16T00:51:07;8.70;;;4.67;;
39356;SDS011;25077;50.302;18.996;2022-09-16T00:54:10;7.93;;;3.60;;
39356;SDS011;25077;50.302;18.996;2022-09-16T00:57:14;9.70;;;4.33;;
39356;SDS011;25077;50.302;18.996;2022-09-16T01:00:16;7.73;;;4.00;;
39356;SDS011;25077;50.302;18.996;2022-09-16T01:03:18;7.27;;;4.33;;
39356;SDS011;25077;50.302;18.996;2022-09-16T01:06:21;7.50;;;4.67;;
39356;SDS011;25077;50.302;18.996;2022-09-16T01:09:26;10.03;;;5.20;;
39356;SDS011;25077;50.302;18.996;2022-09-16T01:12:30;7.80;;;4.27;;
39356;SDS011;25077;50.302;18.996;2022-09-16T01:15:36;10.03;;;4.37;;
39356;SDS011;25077;50.302;18.996;2022-09-16T01:18:46;9.67;;;4.70;;
39356;SDS011;25077;50.302;18.996;2022-09-16T01:21:54;9.73;;;3.90;;
39356;SDS011;25077;50.302;18.996;2022-09-16T01:25:06;10.53;;;4.93;;
39356;SDS011;25077;50.302;18.996;2022-09-16T01:28:41;9.87;;;4.53;;
39356;SDS011;25077;50.302;18.996;2022-09-16T01:32:08;9.63;;;4.13;;
39356;SDS011;25077;50.302;18.996;2022-09-16T01:35:17;6.57;;;3.53;;
39356;SDS011;25077;50.302;18.996;2022-09-16T01:38:32;8.63;;;3.80;;
39356;SDS011;25077;50.302;18.996;2022-09-16T01:41:55;9.47;;;4.37;;
39356;SDS011;25077;50.302;18.996;2022-09-16T01:45:04;7.03;;;4.33;;
39356;SDS011;25077;50.302;18.996;2022-09-16T01:48:16;8.50;;;4.40;;
39356;SDS011;25077;50.302;18.996;2022-09-16T01:51:27;12.40;;;4.47;;
39356;SDS011;25077;50.302;18.996;2022-09-16T01:54:34;10.23;;;4.60;;
39356;SDS011;25077;50.302;18.996;2022-09-16T01:57:44;7.60;;;4.53;;
39356;SDS011;25077;50.302;18.996;2022-09-16T02:00:54;13.80;;;5.47;;
39356;SDS011;25077;50.302;18.996;2022-09-16T02:04:05;11.13;;;5.20;;
39356;SDS011;25077;50.302;18.996;2022-09-16T02:07:10;12.40;;;4.83;;
39356;SDS011;25077;50.302;18.996;2022-09-16T02:10:19;11.40;;;5.20;;
39356;SDS011;25077;50.302;18.996;2022-09-16T02:13:26;8.60;;;4.80;;
39356;SDS011;25077;50.302;18.996;2022-09-16T02:16:33;9.83;;;5.03;;
39356;SDS011;25077;50.302;18.996;2022-09-16T02:19:40;8.13;;;4.50;;
39356;SDS011;25077;50.302;18.996;2022-09-16T02:22:45;6.87;;;4.67;;
39356;SDS011;25077;50.302;18.996;2022-09-16T02:25:50;9.13;;;4.30;;
39356;SDS011;25077;50.302;18.996;2022-09-16T02:28:55;8.00;;;4.43;;
39356;SDS011;25077;50.302;18.996;2022-09-16T02:31:59;10.37;;;4.50;;
39356;SDS011;25077;50.302;18.996;2022-09-16T02:35:05;5.10;;;3.83;;
39356;SDS011;25077;50.302;18.996;2022-09-16T02:38:11;5.90;;;3.80;;
39356;SDS011;25077;50.302;18.996;2022-09-16T02:41:17;8.97;;;3.97;;
39356;SDS011;25077;50.302;18.996;2022-09-16T02:44:19;6.60;;;3.97;;
39356;SDS011;25077;50.302;18.996;2022-09-16T02:47:24;10.73;;;4.97;;
39356;SDS011;25077;50.302;18.996;2022-09-16T02:50:36;7.13;;;4.20;;
39356;SDS011;25077;50.302;18.996;2022-09-16T02:53:42;8.60;;;3.77;;
39356;SDS011;25077;50.302;18.996;2022-09-16T02:56:48;8.60;;;4.10;;
39356;SDS011;25077;50.302;18.996;2022-09-16T02:59:50;5.93;;;3.83;;
39356;SDS011;25077;50.302;18.996;2022-09-16T03:02:52;12.20;;;4.33;;
39356;SDS011;25077;50.302;18.996;2022-09-16T03:06:09;7.17;;;4.53;;
39356;SDS011;25077;50.302;18.996;2022-09-16T03:09:16;10.67;;;4.30;;
39356;SDS011;25077;50.302;18.996;2022-09-16T03:12:36;7.40;;;3.77;;
39356;SDS011;25077;50.302;18.996;2022-09-16T03:15:51;7.47;;;4.00;;
39356;SDS011;25077;50.302;18.996;2022-09-16T03:19:04;8.13;;;4.27;;
39356;SDS011;25077;50.302;18.996;2022-09-16T03:22:20;7.10;;;4.00;;
39356;SDS011;25077;50.302;18.996;2022-09-16T03:25:37;5.73;;;3.77;;
39356;SDS011;25077;50.302;18.996;2022-09-16T03:28:49;7.80;;;3.80;;
39356;SDS011;25077;50.302;18.996;2022-09-16T03:31:59;7.47;;;4.13;;
39356;SDS011;25077;50.302;18.996;2022-09-16T03:35:08;8.27;;;3.80;;
39356;SDS011;25077;50.302;18.996;2022-09-16T03:38:15;8.70;;;3.43;;
39356;SDS011;25077;50.302;18.996;2022-09-16T03:41:19;7.80;;;3.70;;
39356;SDS011;25077;50.302;18.996;2022-09-16T03:44:29;8.23;;;3.77;;
39356;SDS011;25077;50.302;18.996;2022-09-16T03:47:31;4.40;;;3.33;;
39356;SDS011;25077;50.302;18.996;2022-09-16T03:50:34;6.73;;;3.67;;
39356;SDS011;25077;50.302;18.996;2022-09-16T03:53:38;8.73;;;2.87;;
39356;SDS011;25077;50.302;18.996;2022-09-16T03:56:40;5.53;;;2.70;;
39356;SDS011;25077;50.302;18.996;2022-09-16T03:59:42;6.07;;;3.67;;
39356;SDS011;25077;50.302;18.996;2022-09-16T04:02:44;9.43;;;3.50;;
39356;SDS011;25077;50.302;18.996;2022-09-16T04:05:46;10.33;;;3.93;;
39356;SDS011;25077;50.302;18.996;2022-09-16T04:08:55;6.43;;;3.63;;
39356;SDS011;25077;50.302;18.996;2022-09-16T04:12:00;7.40;;;3.70;;
39356;SDS011;25077;50.302;18.996;2022-09-16T04:15:02;5.63;;;3.77;;
39356;SDS011;25077;50.302;18.996;2022-09-16T04:18:05;7.83;;;3.73;;
39356;SDS011;25077;50.302;18.996;2022-09-16T04:21:08;7.63;;;3.77;;
39356;SDS011;25077;50.302;18.996;2022-09-16T04:24:11;5.80;;;3.13;;
39356;SDS011;25077;50.302;18.996;2022-09-16T04:27:14;8.33;;;3.60;;
39356;SDS011;25077;50.302;18.996;2022-09-16T04:30:16;12.40;;;3.40;;
39356;SDS011;25077;50.302;18.996;2022-09-16T04:33:18;10.93;;;3.43;;
39356;SDS011;25077;50.302;18.996;2022-09-16T04:36:21;4.47;;;3.13;;
39356;SDS011;25077;50.302;18.996;2022-09-16T04:39:25;4.93;;;3.50;;
39356;SDS011;25077;50.302;18.996;2022-09-16T04:42:27;5.90;;;3.17;;
39356;SDS011;25077;50.302;18.996;2022-09-16T04:45:29;6.30;;;3.50;;
39356;SDS011;25077;50.302;18.996;2022-09-16T04:48:31;4.70;;;3.13;;
39356;SDS011;25077;50.302;18.996;2022-09-16T04:51:33;6.63;;;3.57;;
39356;SDS011;25077;50.302;18.996;2022-09-16T04:54:37;7.03;;;3.40;;
39356;SDS011;25077;50.302;18.996;2022-09-16T04:57:39;8.67;;;3.70;;
39356;SDS011;25077;50.302;18.996;2022-09-16T05:00:41;5.93;;;3.80;;
39356;SDS011;25077;50.302;18.996;2022-09-16T05:03:44;7.13;;;3.30;;
39356;SDS011;25077;50.302;18.996;2022-09-16T05:06:47;6.43;;;3.43;;
39356;SDS011;25077;50.302;18.996;2022-09-16T05:09:51;7.47;;;4.00;;
39356;SDS011;25077;50.302;18.996;2022-09-16T05:12:52;10.30;;;3.50;;
39356;SDS011;25077;50.302;18.996;2022-09-16T05:15:55;5.53;;;3.20;;
39356;SDS011;25077;50.302;18.996;2022-09-16T05:18:57;6.57;;;3.57;;
39356;SDS011;25077;50.302;18.996;2022-09-16T05:22:00;12.13;;;3.87;;
39356;SDS011;25077;50.302;18.996;2022-09-16T05:25:08;5.43;;;3.50;;
39356;SDS011;25077;50.302;18.996;2022-09-16T05:28:10;5.10;;;3.37;;
39356;SDS011;25077;50.302;18.996;2022-09-16T05:31:12;7.03;;;3.27;;
39356;SDS011;25077;50.302;18.996;2022-09-16T05:34:16;5.53;;;2.97;;
39356;SDS011;25077;50.302;18.996;2022-09-16T05:37:19;7.63;;;3.10;;
39356;SDS011;25077;50.302;18.996;2022-09-16T05:40:24;6.47;;;3.70;;
39356;SDS011;25077;50.302;18.996;2022-09-16T05:43:27;8.73;;;3.73;;
39356;SDS011;25077;50.302;18.996;2022-09-16T05:46:29;6.70;;;3.17;;
39356;SDS011;25077;50.302;18.996;2022-09-16T05:49:31;5.17;;;3.30;;
39356;SDS011;25077;50.302;18.996;2022-09-16T05:52:33;6.00;;;3.20;;
39356;SDS011;25077;50.302;18.996;2022-09-16T05:55:37;5.30;;;3.37;;
39356;SDS011;25077;50.302;18.996;2022-09-16T05:58:39;5.37;;;4.20;;
39356;SDS011;25077;50.302;18.996;2022-09-16T06:01:41;6.10;;;3.70;;
39356;SDS011;25077;50.302;18.996;2022-09-16T06:04:43;5.80;;;4.33;;
39356;SDS011;25077;50.302;18.996;2022-09-16T06:07:46;6.93;;;3.90;;
39356;SDS011;25077;50.302;18.996;2022-09-16T06:10:49;6.17;;;4.03;;
39356;SDS011;25077;50.302;18.996;2022-09-16T06:13:51;6.03;;;4.17;;
39356;SDS011;25077;50.302;18.996;2022-09-16T06:16:55;11.47;;;4.10;;
39356;SDS011;25077;50.302;18.996;2022-09-16T06:19:58;11.07;;;4.30;;
39356;SDS011;25077;50.302;18.996;2022-09-16T06:23:00;6.43;;;4.33;;
39356;SDS011;25077;50.302;18.996;2022-09-16T06:26:04;6.73;;;4.30;;
39356;SDS011;25077;50.302;18.996;2022-09-16T06:29:08;11.47;;;4.80;;
39356;SDS011;25077;50.302;18.996;2022-09-16T06:32:11;7.17;;;4.60;;
39356;SDS011;25077;50.302;18.996;2022-09-16T06:35:13;8.13;;;4.53;;
39356;SDS011;25077;50.302;18.996;2022-09-16T06:38:15;9.17;;;5.00;;
39356;SDS011;25077;50.302;18.996;2022-09-16T06:41:19;6.93;;;4.30;;
39356;SDS011;25077;50.302;18.996;2022-09-16T06:44:22;15.40;;;4.50;;
39356;SDS011;25077;50.302;18.996;2022-09-16T06:47:24;9.67;;;4.30;;
39356;SDS011;25077;50.302;18.996;2022-09-16T06:50:26;8.20;;;4.20;;
39356;SDS011;25077;50.302;18.996;2022-09-16T06:53:28;8.37;;;4.07;;
39356;SDS011;25077;50.302;18.996;2022-09-16T06:56:32;10.90;;;4.23;;
39356;SDS011;25077;50.302;18.996;2022-09-16T06:59:37;10.67;;;4.27;;
39356;SDS011;25077;50.302;18.996;2022-09-16T07:02:39;7.17;;;4.60;;
39356;SDS011;25077;50.302;18.996;2022-09-16T07:05:41;8.23;;;5.03;;
39356;SDS011;25077;50.302;18.996;2022-09-16T07:08:44;11.27;;;6.27;;
39356;SDS011;25077;50.302;18.996;2022-09-16T07:11:48;9.40;;;4.77;;
39356;SDS011;25077;50.302;18.996;2022-09-16T07:14:50;13.00;;;4.77;;
39356;SDS011;25077;50.302;18.996;2022-09-16T07:17:52;9.27;;;4.73;;
39356;SDS011;25077;50.302;18.996;2022-09-16T07:20:59;5.73;;;3.90;;
39356;SDS011;25077;50.302;18.996;2022-09-16T07:24:08;11.60;;;4.50;;
39356;SDS011;25077;50.302;18.996;2022-09-16T07:27:14;7.53;;;4.10;;
39356;SDS011;25077;50.302;18.996;2022-09-16T07:30:16;7.93;;;4.37;;
39356;SDS011;25077;50.302;18.996;2022-09-16T07:33:18;7.03;;;4.03;;
39356;SDS011;25077;50.302;18.996;2022-09-16T07:36:22;6.53;;;4.10;;
39356;SDS011;25077;50.302;18.996;2022-09-16T07:39:26;5.87;;;3.87;;
39356;SDS011;25077;50.302;18.996;2022-09-16T07:42:29;6.87;;;3.97;;
39356;SDS011;25077;50.302;18.996;2022-09-16T07:45:31;6.37;;;3.97;;
39356;SDS011;25077;50.302;18.996;2022-09-16T07:48:33;11.53;;;6.80;;
39356;SDS011;25077;50.302;18.996;2022-09-16T07:51:36;22.93;;;11.23;;
39356;SDS011;25077;50.302;18.996;2022-09-16T07:54:38;7.07;;;4.73;;
39356;SDS011;25077;50.302;18.996;2022-09-16T07:57:41;9.93;;;4.73;;
39356;SDS011;25077;50.302;18.996;2022-09-16T08:00:43;10.87;;;5.03;;
39356;SDS011;25077;50.302;18.996;2022-09-16T08:03:47;9.10;;;4.80;;
39356;SDS011;25077;50.302;18.996;2022-09-16T08:06:49;12.10;;;4.93;;
39356;SDS011;25077;50.302;18.996;2022-09-16T08:09:51;6.90;;;5.03;;
39356;SDS011;25077;50.302;18.996;2022-09-16T08:12:54;7.77;;;4.97;;
39356;SDS011;25077;50.302;18.996;2022-09-16T08:15:58;8.17;;;4.57;;
39356;SDS011;25077;50.302;18.996;2022-09-16T08:19:01;7.87;;;4.67;;
39356;SDS011;25077;50.302;18.996;2022-09-16T08:22:04;7.40;;;4.37;;
39356;SDS011;25077;50.302;18.996;2022-09-16T08:25:06;8.17;;;4.73;;
39356;SDS011;25077;50.302;18.996;2022-09-16T08:28:12;7.03;;;4.30;;
39356;SDS011;25077;50.302;18.996;2022-09-16T08:31:15;9.37;;;4.60;;
39356;SDS011;25077;50.302;18.996;2022-09-16T08:34:17;7.20;;;4.03;;
39356;SDS011;25077;50.302;18.996;2022-09-16T08:37:19;9.17;;;4.40;;
39356;SDS011;25077;50.302;18.996;2022-09-16T08:40:22;9.13;;;4.30;;
39356;SDS011;25077;50.302;18.996;2022-09-16T08:43:28;7.90;;;4.37;;
39356;SDS011;25077;50.302;18.996;2022-09-16T08:46:38;7.50;;;4.07;;
39356;SDS011;25077;50.302;18.996;2022-09-16T08:49:50;10.13;;;4.20;;
39356;SDS011;25077;50.302;18.996;2022-09-16T08:52:54;7.50;;;4.40;;
39356;SDS011;25077;50.302;18.996;2022-09-16T08:55:58;9.23;;;4.10;;
39356;SDS011;25077;50.302;18.996;2022-09-16T08:59:10;9.83;;;4.50;;
39356;SDS011;25077;50.302;18.996;2022-09-16T09:02:19;13.10;;;4.30;;
39356;SDS011;25077;50.302;18.996;2022-09-16T09:05:33;4.73;;;3.40;;
39356;SDS011;25077;50.302;18.996;2022-09-16T09:08:46;6.33;;;5.20;;
39356;SDS011;25077;50.302;18.996;2022-09-16T09:11:57;4.80;;;3.30;;
39356;SDS011;25077;50.302;18.996;2022-09-16T09:15:25;8.23;;;6.23;;
39356;SDS011;25077;50.302;18.996;2022-09-16T09:18:34;7.20;;;2.40;;
39356;SDS011;25077;50.302;18.996;2022-09-16T09:21:43;5.10;;;2.37;;
39356;SDS011;25077;50.302;18.996;2022-09-16T09:24:55;5.03;;;2.70;;
39356;SDS011;25077;50.302;18.996;2022-09-16T09:28:25;5.60;;;2.80;;
39356;SDS011;25077;50.302;18.996;2022-09-16T09:31:45;6.07;;;3.30;;
39356;SDS011;25077;50.302;18.996;2022-09-16T09:34:59;5.10;;;3.13;;
39356;SDS011;25077;50.302;18.996;2022-09-16T09:41:56;7.33;;;2.70;;
39356;SDS011;25077;50.302;18.996;2022-09-16T09:45:02;7.13;;;2.90;;
39356;SDS011;25077;50.302;18.996;2022-09-16T09:48:08;6.13;;;2.50;;
39356;SDS011;25077;50.302;18.996;2022-09-16T09:51:18;4.57;;;2.23;;
39356;SDS011;25077;50.302;18.996;2022-09-16T09:54:25;13.37;;;2.07;;
39356;SDS011;25077;50.302;18.996;2022-09-16T09:57:29;4.13;;;2.13;;
39356;SDS011;25077;50.302;18.996;2022-09-16T10:00:38;3.47;;;2.07;;
39356;SDS011;25077;50.302;18.996;2022-09-16T10:03:42;2.03;;;1.50;;
39356;SDS011;25077;50.302;18.996;2022-09-16T10:06:44;3.13;;;1.70;;
39356;SDS011;25077;50.302;18.996;2022-09-16T10:09:50;2.70;;;1.23;;
39356;SDS011;25077;50.302;18.996;2022-09-16T10:13:04;4.30;;;1.83;;
39356;SDS011;25077;50.302;18.996;2022-09-16T10:16:10;6.40;;;1.40;;
39356;SDS011;25077;50.302;18.996;2022-09-16T10:19:17;3.87;;;1.77;;
39356;SDS011;25077;50.302;18.996;2022-09-16T10:22:23;9.77;;;2.50;;
39356;SDS011;25077;50.302;18.996;2022-09-16T10:25:26;13.00;;;1.83;;
39356;SDS011;25077;50.302;18.996;2022-09-16T10:28:31;3.83;;;1.93;;
39356;SDS011;25077;50.302;18.996;2022-09-16T10:31:34;1.73;;;1.23;;
39356;SDS011;25077;50.302;18.996;2022-09-16T10:34:40;5.67;;;2.17;;
39356;SDS011;25077;50.302;18.996;2022-09-16T10:37:44;2.73;;;1.60;;
39356;SDS011;25077;50.302;18.996;2022-09-16T10:40:51;3.80;;;1.67;;
39356;SDS011;25077;50.302;18.996;2022-09-16T10:43:55;4.23;;;1.80;;
39356;SDS011;25077;50.302;18.996;2022-09-16T10:46:59;2.33;;;1.80;;
39356;SDS011;25077;50.302;18.996;2022-09-16T10:50:04;2.10;;;1.70;;
39356;SDS011;25077;50.302;18.996;2022-09-16T10:53:19;3.50;;;1.97;;
39356;SDS011;25077;50.302;18.996;2022-09-16T10:56:24;6.03;;;2.03;;
39356;SDS011;25077;50.302;18.996;2022-09-16T10:59:28;2.47;;;1.50;;
39356;SDS011;25077;50.302;18.996;2022-09-16T11:02:45;2.60;;;1.60;;
39356;SDS011;25077;50.302;18.996;2022-09-16T11:06:08;1.83;;;1.20;;
39356;SDS011;25077;50.302;18.996;2022-09-16T11:09:26;1.80;;;1.10;;
39356;SDS011;25077;50.302;18.996;2022-09-16T11:12:49;5.43;;;1.67;;
39356;SDS011;25077;50.302;18.996;2022-09-16T11:16:19;4.10;;;1.40;;
39356;SDS011;25077;50.302;18.996;2022-09-16T11:19:33;2.60;;;1.70;;
39356;SDS011;25077;50.302;18.996;2022-09-16T11:22:46;3.03;;;1.87;;
39356;SDS011;25077;50.302;18.996;2022-09-16T11:25:59;1.93;;;1.40;;
39356;SDS011;25077;50.302;18.996;2022-09-16T11:29:08;5.53;;;1.20;;
39356;SDS011;25077;50.302;18.996;2022-09-16T11:32:21;2.40;;;0.93;;
39356;SDS011;25077;50.302;18.996;2022-09-16T11:35:38;3.10;;;1.07;;
39356;SDS011;25077;50.302;18.996;2022-09-16T11:38:51;1.90;;;1.00;;
39356;SDS011;25077;50.302;18.996;2022-09-16T11:42:03;3.60;;;1.00;;
39356;SDS011;25077;50.302;18.996;2022-09-16T11:45:19;1.30;;;1.00;;
39356;SDS011;25077;50.302;18.996;2022-09-16T11:48:40;1.23;;;1.00;;
39356;SDS011;25077;50.302;18.996;2022-09-16T11:51:53;5.73;;;1.17;;
39356;SDS011;25077;50.302;18.996;2022-09-16T11:55:17;4.57;;;1.37;;
39356;SDS011;25077;50.302;18.996;2022-09-16T11:58:29;1.57;;;1.20;;
39356;SDS011;25077;50.302;18.996;2022-09-16T12:01:36;2.40;;;1.47;;
39356;SDS011;25077;50.302;18.996;2022-09-16T12:04:44;2.60;;;1.43;;
39356;SDS011;25077;50.302;18.996;2022-09-16T12:07:52;6.50;;;2.53;;
39356;SDS011;25077;50.302;18.996;2022-09-16T12:11:07;2.87;;;1.13;;
39356;SDS011;25077;50.302;18.996;2022-09-16T12:14:19;4.00;;;1.50;;
39356;SDS011;25077;50.302;18.996;2022-09-16T12:17:25;9.57;;;2.50;;
39356;SDS011;25077;50.302;18.996;2022-09-16T12:20:29;3.70;;;1.63;;
39356;SDS011;25077;50.302;18.996;2022-09-16T12:23:37;5.00;;;1.33;;
39356;SDS011;25077;50.302;18.996;2022-09-16T12:26:45;4.40;;;1.50;;
39356;SDS011;25077;50.302;18.996;2022-09-16T12:29:52;2.07;;;1.13;;
39356;SDS011;25077;50.302;18.996;2022-09-16T12:33:00;2.17;;;1.50;;
39356;SDS011;25077;50.302;18.996;2022-09-16T12:36:07;2.20;;;1.43;;
39356;SDS011;25077;50.302;18.996;2022-09-16T12:39:13;3.00;;;1.63;;
39356;SDS011;25077;50.302;18.996;2022-09-16T12:42:26;7.17;;;2.63;;
39356;SDS011;25077;50.302;18.996;2022-09-16T12:45:50;6.27;;;2.10;;
39356;SDS011;25077;50.302;18.996;2022-09-16T12:49:15;1.63;;;1.37;;
39356;SDS011;25077;50.302;18.996;2022-09-16T12:56:34;10.77;;;2.10;;
39356;SDS011;25077;50.302;18.996;2022-09-16T12:59:50;8.23;;;2.97;;
39356;SDS011;25077;50.302;18.996;2022-09-16T13:03:09;10.33;;;2.83;;
39356;SDS011;25077;50.302;18.996;2022-09-16T13:06:19;2.90;;;1.63;;
39356;SDS011;25077;50.302;18.996;2022-09-16T13:09:25;5.27;;;2.10;;
39356;SDS011;25077;50.302;18.996;2022-09-16T13:12:31;2.87;;;1.50;;
39356;SDS011;25077;50.302;18.996;2022-09-16T13:15:37;1.97;;;1.40;;
39356;SDS011;25077;50.302;18.996;2022-09-16T13:18:42;2.93;;;1.60;;
39356;SDS011;25077;50.302;18.996;2022-09-16T13:21:45;3.30;;;1.63;;
39356;SDS011;25077;50.302;18.996;2022-09-16T13:24:49;2.57;;;1.47;;
39356;SDS011;25077;50.302;18.996;2022-09-16T13:27:56;1.30;;;1.07;;
39356;SDS011;25077;50.302;18.996;2022-09-16T13:31:18;3.67;;;1.37;;
39356;SDS011;25077;50.302;18.996;2022-09-16T13:34:29;3.57;;;1.57;;
39356;SDS011;25077;50.302;18.996;2022-09-16T13:37:31;1.40;;;1.30;;
39356;SDS011;25077;50.302;18.996;2022-09-16T13:40:33;5.03;;;1.67;;
39356;SDS011;25077;50.302;18.996;2022-09-16T13:43:35;3.87;;;1.60;;
39356;SDS011;25077;50.302;18.996;2022-09-16T13:46:50;2.20;;;1.97;;
39356;SDS011;25077;50.302;18.996;2022-09-16T13:49:54;2.40;;;1.60;;
39356;SDS011;25077;50.302;18.996;2022-09-16T13:53:06;2.80;;;1.37;;
39356;SDS011;25077;50.302;18.996;2022-09-16T13:56:13;2.77;;;1.53;;
39356;SDS011;25077;50.302;18.996;2022-09-16T13:59:42;2.40;;;1.50;;
39356;SDS011;25077;50.302;18.996;2022-09-16T14:03:04;2.40;;;1.00;;
39356;SDS011;25077;50.302;18.996;2022-09-16T14:06:19;2.07;;;1.30;;
39356;SDS011;25077;50.302;18.996;2022-09-16T14:09:43;1.47;;;1.03;;
39356;SDS011;25077;50.302;18.996;2022-09-16T14:12:54;1.50;;;1.00;;
39356;SDS011;25077;50.302;18.996;2022-09-16T14:16:02;6.87;;;1.60;;
39356;SDS011;25077;50.302;18.996;2022-09-16T14:19:15;5.23;;;1.80;;
39356;SDS011;25077;50.302;18.996;2022-09-16T14:22:24;1.83;;;1.40;;
39356;SDS011;25077;50.302;18.996;2022-09-16T14:25:29;2.33;;;1.60;;
39356;SDS011;25077;50.302;18.996;2022-09-16T14:28:32;2.23;;;1.43;;
39356;SDS011;25077;50.302;18.996;2022-09-16T14:31:34;3.80;;;1.27;;
39356;SDS011;25077;50.302;18.996;2022-09-16T14:34:40;1.33;;;0.90;;
39356;SDS011;25077;50.302;18.996;2022-09-16T14:37:42;2.00;;;1.20;;
39356;SDS011;25077;50.302;18.996;2022-09-16T14:40:46;4.53;;;1.20;;
39356;SDS011;25077;50.302;18.996;2022-09-16T14:43:48;5.28;;;1.95;;
39356;SDS011;25077;50.302;18.996;2022-09-16T14:46:53;4.78;;;1.40;;
39356;SDS011;25077;50.302;18.996;2022-09-16T14:50:00;1.15;;;0.98;;
39356;SDS011;25077;50.302;18.996;2022-09-16T14:53:06;6.43;;;1.77;;
39356;SDS011;25077;50.302;18.996;2022-09-16T14:56:23;8.52;;;2.10;;
39356;SDS011;25077;50.302;18.996;2022-09-16T14:59:26;29.48;;;4.00;;
39356;SDS011;25077;50.302;18.996;2022-09-16T15:02:32;3.58;;;1.55;;
39356;SDS011;25077;50.302;18.996;2022-09-16T15:05:39;4.55;;;1.88;;
39356;SDS011;25077;50.302;18.996;2022-09-16T15:08:46;2.58;;;1.60;;
39356;SDS011;25077;50.302;18.996;2022-09-16T15:11:52;4.88;;;2.10;;
39356;SDS011;25077;50.302;18.996;2022-09-16T15:15:01;8.75;;;2.83;;
39356;SDS011;25077;50.302;18.996;2022-09-16T15:18:05;3.30;;;2.10;;
39356;SDS011;25077;50.302;18.996;2022-09-16T15:21:11;4.75;;;2.45;;
39356;SDS011;25077;50.302;18.996;2022-09-16T15:24:19;2.85;;;1.80;;
39356;SDS011;25077;50.302;18.996;2022-09-16T15:27:28;2.63;;;1.50;;
39356;SDS011;25077;50.302;18.996;2022-09-16T15:30:31;3.38;;;1.60;;
39356;SDS011;25077;50.302;18.996;2022-09-16T15:33:35;2.95;;;1.90;;
39356;SDS011;25077;50.302;18.996;2022-09-16T15:36:39;2.65;;;1.70;;
39356;SDS011;25077;50.302;18.996;2022-09-16T15:39:42;2.42;;;1.60;;
39356;SDS011;25077;50.302;18.996;2022-09-16T15:42:44;3.20;;;1.60;;
39356;SDS011;25077;50.302;18.996;2022-09-16T15:45:55;3.08;;;1.60;;
39356;SDS011;25077;50.302;18.996;2022-09-16T15:49:00;5.00;;;1.88;;
39356;SDS011;25077;50.302;18.996;2022-09-16T15:52:05;4.27;;;2.00;;
39356;SDS011;25077;50.302;18.996;2022-09-16T15:55:10;4.03;;;2.00;;
39356;SDS011;25077;50.302;18.996;2022-09-16T15:58:13;2.57;;;1.73;;
39356;SDS011;25077;50.302;18.996;2022-09-16T16:01:29;3.67;;;1.80;;
39356;SDS011;25077;50.302;18.996;2022-09-16T16:04:38;3.70;;;2.00;;
39356;SDS011;25077;50.302;18.996;2022-09-16T16:07:42;3.30;;;1.80;;
39356;SDS011;25077;50.302;18.996;2022-09-16T16:10:46;3.47;;;2.00;;
39356;SDS011;25077;50.302;18.996;2022-09-16T16:14:06;3.57;;;2.20;;
39356;SDS011;25077;50.302;18.996;2022-09-16T16:17:10;4.40;;;2.60;;
39356;SDS011;25077;50.302;18.996;2022-09-16T16:20:14;5.80;;;2.30;;
39356;SDS011;25077;50.302;18.996;2022-09-16T16:23:18;3.57;;;2.10;;
39356;SDS011;25077;50.302;18.996;2022-09-16T16:26:20;4.30;;;2.30;;
39356;SDS011;25077;50.302;18.996;2022-09-16T16:29:22;3.93;;;2.30;;
39356;SDS011;25077;50.302;18.996;2022-09-16T16:32:24;4.10;;;2.30;;
39356;SDS011;25077;50.302;18.996;2022-09-16T16:35:26;3.97;;;2.57;;
39356;SDS011;25077;50.302;18.996;2022-09-16T16:38:29;4.03;;;2.67;;
39356;SDS011;25077;50.302;18.996;2022-09-16T16:41:31;3.73;;;2.30;;
39356;SDS011;25077;50.302;18.996;2022-09-16T16:44:33;6.13;;;2.97;;
39356;SDS011;25077;50.302;18.996;2022-09-16T16:47:36;5.00;;;3.00;;
39356;SDS011;25077;50.302;18.996;2022-09-16T16:50:38;7.67;;;2.67;;
39356;SDS011;25077;50.302;18.996;2022-09-16T16:53:45;6.57;;;2.67;;
39356;SDS011;25077;50.302;18.996;2022-09-16T16:56:48;4.83;;;3.17;;
39356;SDS011;25077;50.302;18.996;2022-09-16T16:59:51;7.90;;;3.10;;
39356;SDS011;25077;50.302;18.996;2022-09-16T17:02:53;5.23;;;2.53;;
39356;SDS011;25077;50.302;18.996;2022-09-16T17:05:55;5.87;;;2.80;;
39356;SDS011;25077;50.302;18.996;2022-09-16T17:08:58;4.00;;;2.30;;
39356;SDS011;25077;50.302;18.996;2022-09-16T17:12:00;3.27;;;2.47;;
39356;SDS011;25077;50.302;18.996;2022-09-16T17:15:03;5.97;;;2.50;;
39356;SDS011;25077;50.302;18.996;2022-09-16T17:18:07;9.50;;;2.70;;
39356;SDS011;25077;50.302;18.996;2022-09-16T17:21:10;4.37;;;2.80;;
39356;SDS011;25077;50.302;18.996;2022-09-16T17:24:14;4.40;;;2.90;;
39356;SDS011;25077;50.302;18.996;2022-09-16T17:27:17;4.40;;;2.90;;
39356;SDS011;25077;50.302;18.996;2022-09-16T17:30:20;5.37;;;2.33;;
39356;SDS011;25077;50.302;18.996;2022-09-16T17:33:22;3.50;;;2.57;;
39356;SDS011;25077;50.302;18.996;2022-09-16T17:36:24;5.57;;;2.67;;
39356;SDS011;25077;50.302;18.996;2022-09-16T17:39:27;5.10;;;2.80;;
39356;SDS011;25077;50.302;18.996;2022-09-16T17:42:29;3.67;;;2.83;;
39356;SDS011;25077;50.302;18.996;2022-09-16T17:45:31;5.93;;;3.40;;
39356;SDS011;25077;50.302;18.996;2022-09-16T17:48:34;5.33;;;3.40;;
39356;SDS011;25077;50.302;18.996;2022-09-16T17:51:37;6.23;;;3.60;;
39356;SDS011;25077;50.302;18.996;2022-09-16T17:54:40;5.67;;;3.93;;
39356;SDS011;25077;50.302;18.996;2022-09-16T17:57:42;6.03;;;3.07;;
39356;SDS011;25077;50.302;18.996;2022-09-16T18:00:44;6.40;;;3.33;;
39356;SDS011;25077;50.302;18.996;2022-09-16T18:03:47;5.20;;;2.87;;
39356;SDS011;25077;50.302;18.996;2022-09-16T18:06:50;6.60;;;3.30;;
39356;SDS011;25077;50.302;18.996;2022-09-16T18:09:53;5.40;;;3.03;;
39356;SDS011;25077;50.302;18.996;2022-09-16T18:12:55;6.73;;;3.43;;
39356;SDS011;25077;50.302;18.996;2022-09-16T18:16:02;4.83;;;3.47;;
39356;SDS011;25077;50.302;18.996;2022-09-16T18:19:05;9.87;;;3.53;;
39356;SDS011;25077;50.302;18.996;2022-09-16T18:22:08;8.40;;;3.57;;
39356;SDS011;25077;50.302;18.996;2022-09-16T18:25:11;7.00;;;3.80;;
39356;SDS011;25077;50.302;18.996;2022-09-16T18:28:13;7.50;;;3.87;;
39356;SDS011;25077;50.302;18.996;2022-09-16T18:31:16;8.70;;;3.60;;
39356;SDS011;25077;50.302;18.996;2022-09-16T18:34:20;11.27;;;5.10;;